Time;durP1;ratioP1;P1;durP2;ratioP2;P2;SDS_P1;SDS_P2;PMS_P1;PMS_P2;Temp;Humidity;BMP_temperature;BMP_pressure;BME280_temperature;BME280_humidity;BME280_pressure;Samples;Min_cycle;Max_cycle;Signal;HPM_P1;HPM_P2
2023/04/30 00:01:55;;;;;;;5.28;3.67;;;13.30;99.90;;;;;;5053550;28;20029;-43
2023/04/30 00:04:21;;;;;;;5.90;3.65;;;13.30;99.90;;;;;;5053260;28;20083;-44
2023/04/30 00:06:46;;;;;;;5.70;4.05;;;13.30;99.90;;;;;;5052621;28;20391;-44
2023/04/30 00:09:12;;;;;;;4.75;3.42;;;13.30;99.90;;;;;;5054332;28;20060;-42
2023/04/30 00:11:38;;;;;;;4.50;3.60;;;13.30;99.90;;;;;;5052356;28;20017;-43
2023/04/30 00:14:03;;;;;;;5.07;3.35;;;13.30;99.90;;;;;;5053221;28;20378;-43
2023/04/30 00:16:29;;;;;;;3.92;3.08;;;13.30;99.90;;;;;;5053565;28;20066;-44
2023/04/30 00:18:55;;;;;;;7.55;3.45;;;13.30;99.90;;;;;;5053099;28;20107;-44
2023/04/30 00:21:20;;;;;;;4.07;3.42;;;13.30;99.90;;;;;;5054519;28;20047;-44
2023/04/30 00:23:46;;;;;;;4.65;3.13;;;13.30;99.90;;;;;;5053715;28;20033;-44
2023/04/30 00:26:11;;;;;;;3.70;3.15;;;13.30;99.90;;;;;;5052254;28;20392;-44
2023/04/30 00:28:37;;;;;;;3.95;3.05;;;13.30;99.90;;;;;;5053003;28;20036;-45
2023/04/30 00:31:05;;;;;;;4.18;3.35;;;13.30;99.90;;;;;;5052790;28;20021;-43
2023/04/30 00:33:31;;;;;;;4.60;3.10;;;13.30;99.90;;;;;;5052968;28;20032;-44
2023/04/30 00:35:57;;;;;;;5.45;2.85;;;13.30;99.90;;;;;;5052498;28;20319;-43
2023/04/30 00:38:22;;;;;;;4.10;2.88;;;13.30;99.90;;;;;;5053345;28;20043;-41
2023/04/30 00:40:48;;;;;;;4.90;2.97;;;13.30;99.90;;;;;;5053629;28;20052;-44
2023/04/30 00:43:14;;;;;;;5.82;3.05;;;13.30;99.90;;;;;;5054210;28;20030;-44
2023/04/30 00:45:39;;;;;;;4.75;3.13;;;13.30;99.90;;;;;;5053890;28;20055;-38
2023/04/30 00:48:06;;;;;;;3.85;2.85;;;13.30;99.90;;;;;;5052608;28;20416;-44
2023/04/30 00:50:34;;;;;;;3.97;3.15;;;13.30;99.90;;;;;;5052558;28;20014;-39
2023/04/30 00:53:00;;;;;;;3.95;3.17;;;13.20;99.90;;;;;;5052486;28;20044;-46
2023/04/30 00:55:26;;;;;;;4.00;3.20;;;13.30;99.90;;;;;;5052405;28;20029;-43
2023/04/30 00:57:51;;;;;;;4.55;3.13;;;13.30;99.90;;;;;;5050366;28;20061;-39
2023/04/30 01:00:17;;;;;;;4.93;3.15;;;13.30;99.90;;;;;;5052722;28;20063;-41
2023/04/30 01:02:43;;;;;;;3.75;3.20;;;13.30;99.90;;;;;;5051822;28;20037;-45
2023/04/30 01:05:09;;;;;;;3.28;2.88;;;13.30;99.90;;;;;;5052240;28;20033;-44
2023/04/30 01:07:37;;;;;;;4.50;3.03;;;13.30;99.90;;;;;;5051430;28;20040;-43
2023/04/30 01:10:04;;;;;;;3.67;2.75;;;13.30;99.90;;;;;;5052003;28;20017;-44
2023/04/30 01:12:33;;;;;;;3.60;3.17;;;13.30;99.90;;;;;;5052490;28;20483;-44
2023/04/30 01:15:08;;;;;;;4.80;3.15;;;13.30;99.90;;;;;;5052013;28;20024;-44
2023/04/30 01:17:55;;;;;;;3.92;3.45;;;13.30;99.90;;;;;;5051419;28;20176;-45
2023/04/30 01:20:22;;;;;;;3.72;2.95;;;13.30;99.90;;;;;;5048274;28;20075;-46
2023/04/30 01:23:16;;;;;;;4.50;3.17;;;13.20;99.90;;;;;;5051831;28;20078;-46
2023/04/30 01:26:09;;;;;;;3.60;3.03;;;13.30;99.90;;;;;;5051699;28;20048;-44
2023/04/30 01:28:35;;;;;;;4.10;3.05;;;13.30;99.90;;;;;;5051854;28;20579;-43
2023/04/30 01:31:01;;;;;;;3.78;3.10;;;13.30;99.90;;;;;;5051634;28;20025;-44
2023/04/30 01:33:26;;;;;;;4.10;3.13;;;13.30;99.90;;;;;;5051675;28;20442;-44
2023/04/30 01:36:20;;;;;;;5.03;3.33;;;13.20;99.90;;;;;;5051172;28;20044;-40
2023/04/30 01:39:23;;;;;;;5.10;3.20;;;13.20;99.90;;;;;;5051663;28;20033;-45
2023/04/30 01:42:26;;;;;;;4.38;2.80;;;13.20;99.90;;;;;;5046839;28;20479;-44
2023/04/30 01:45:03;;;;;;;4.78;3.30;;;13.20;99.90;;;;;;5029326;28;20414;-43
2023/04/30 01:47:53;;;;;;;4.95;3.42;;;13.20;99.90;;;;;;5048506;28;20503;-46
2023/04/30 01:50:33;;;;;;;5.18;3.63;;;13.20;99.90;;;;;;5050130;28;20021;-44
2023/04/30 01:53:01;;;;;;;4.47;3.42;;;13.30;99.90;;;;;;5051364;28;20491;-41
2023/04/30 01:55:47;;;;;;;5.07;3.38;;;13.20;99.90;;;;;;5051286;28;20494;-45
2023/04/30 01:58:14;;;;;;;4.30;3.50;;;13.20;99.90;;;;;;5047056;28;20070;-44
2023/04/30 02:00:40;;;;;;;4.70;3.42;;;13.30;99.90;;;;;;5051165;28;20393;-43
2023/04/30 02:03:06;;;;;;;4.95;4.05;;;13.30;99.90;;;;;;5050971;28;20422;-46
2023/04/30 02:05:32;;;;;;;4.05;3.47;;;13.20;99.90;;;;;;5050987;28;20021;-45
2023/04/30 02:07:57;;;;;;;6.82;3.97;;;13.20;99.90;;;;;;5051803;28;20442;-45
2023/04/30 02:10:25;;;;;;;5.47;3.88;;;13.20;99.90;;;;;;5051560;28;20025;-42
2023/04/30 02:12:51;;;;;;;5.05;4.35;;;13.30;99.90;;;;;;5050677;28;20025;-40
2023/04/30 02:15:17;;;;;;;5.30;3.70;;;13.20;99.90;;;;;;5050718;28;20020;-42
2023/04/30 02:17:43;;;;;;;5.38;3.97;;;13.20;99.90;;;;;;5050369;28;20033;-43
2023/04/30 02:20:09;;;;;;;4.90;3.60;;;13.30;99.90;;;;;;5051130;28;20036;-44
2023/04/30 02:22:35;;;;;;;4.55;3.58;;;13.20;99.90;;;;;;5051004;28;20021;-44
2023/04/30 02:25:01;;;;;;;6.50;4.22;;;13.20;99.90;;;;;;5051080;28;20029;-43
2023/04/30 02:27:30;;;;;;;4.53;3.38;;;13.30;99.90;;;;;;5050247;28;20039;-44
2023/04/30 02:29:56;;;;;;;4.57;3.58;;;13.30;99.90;;;;;;5050953;28;20035;-44
2023/04/30 02:32:22;;;;;;;4.47;3.70;;;13.20;99.90;;;;;;5050842;28;20104;-43
2023/04/30 02:34:48;;;;;;;4.50;3.85;;;13.20;99.90;;;;;;5050996;28;20511;-42
2023/04/30 02:37:14;;;;;;;6.22;4.18;;;13.20;99.90;;;;;;5050309;28;20391;-43
2023/04/30 02:39:40;;;;;;;4.85;3.72;;;13.30;99.90;;;;;;5050875;28;20029;-43
2023/04/30 02:42:06;;;;;;;5.63;4.35;;;13.30;99.90;;;;;;5050841;28;20028;-43
2023/04/30 02:44:32;;;;;;;6.05;4.20;;;13.20;99.90;;;;;;5050690;28;20021;-42
2023/04/30 02:46:58;;;;;;;6.10;4.35;;;13.20;99.90;;;;;;5050077;28;20050;-41
2023/04/30 02:49:25;;;;;;;5.32;4.43;;;13.20;99.90;;;;;;5050986;28;20036;-46
2023/04/30 02:51:51;;;;;;;7.55;5.00;;;13.20;99.90;;;;;;5050718;28;20017;-42
2023/04/30 02:54:17;;;;;;;6.68;4.50;;;13.20;99.90;;;;;;5050694;28;20108;-47
2023/04/30 02:56:43;;;;;;;5.05;4.10;;;13.20;99.90;;;;;;5050592;28;20029;-44
2023/04/30 02:59:09;;;;;;;7.68;5.00;;;13.20;99.90;;;;;;5050710;28;20048;-44
2023/04/30 03:01:34;;;;;;;6.18;4.70;;;13.20;99.90;;;;;;5050506;28;20672;-43
2023/04/30 03:04:02;;;;;;;6.55;4.80;;;13.20;99.90;;;;;;5049299;28;20040;-40
2023/04/30 03:06:28;;;;;;;6.22;4.80;;;13.30;99.90;;;;;;5050075;28;20075;-44
2023/04/30 03:08:54;;;;;;;5.95;5.05;;;13.30;99.90;;;;;;5050617;28;20013;-44
2023/04/30 03:11:20;;;;;;;7.47;5.20;;;13.20;99.90;;;;;;5050449;28;20021;-44
2023/04/30 03:13:50;;;;;;;6.65;4.75;;;13.20;99.90;;;;;;5050478;28;20021;-44
2023/04/30 03:16:16;;;;;;;7.13;5.10;;;13.20;99.90;;;;;;5050234;28;20068;-44
2023/04/30 03:18:41;;;;;;;6.20;4.80;;;13.20;99.90;;;;;;5050369;28;20044;-43
2023/04/30 03:21:08;;;;;;;6.68;5.50;;;13.20;99.90;;;;;;5050478;28;20029;-41
2023/04/30 03:23:34;;;;;;;8.02;5.05;;;13.20;99.90;;;;;;5050464;28;20391;-45
2023/04/30 03:26:00;;;;;;;7.03;4.85;;;13.20;99.90;;;;;;5052630;28;20032;-48
2023/04/30 03:28:25;;;;;;;7.07;5.30;;;13.20;99.90;;;;;;5053741;28;20029;-43
2023/04/30 03:30:51;;;;;;;6.75;5.00;;;13.20;99.90;;;;;;5053957;28;20017;-43
2023/04/30 03:33:17;;;;;;;7.85;5.40;;;13.20;99.90;;;;;;5054263;28;20054;-43
2023/04/30 03:35:42;;;;;;;8.52;5.90;;;13.20;99.90;;;;;;5053669;28;20074;-44
2023/04/30 03:38:08;;;;;;;7.10;5.68;;;13.20;99.90;;;;;;5053428;28;20383;-43
2023/04/30 03:40:34;;;;;;;8.00;5.38;;;13.20;99.90;;;;;;5053802;28;20029;-45
2023/04/30 03:42:59;;;;;;;7.22;5.43;;;13.20;99.90;;;;;;5053180;28;20025;-43
2023/04/30 03:45:25;;;;;;;6.72;5.47;;;13.20;99.90;;;;;;5052401;28;20051;-46
2023/04/30 03:47:51;;;;;;;6.88;5.50;;;13.20;99.90;;;;;;5053729;28;20029;-44
2023/04/30 03:50:17;;;;;;;9.73;6.30;;;13.20;99.90;;;;;;5053918;28;20013;-43
2023/04/30 03:52:44;;;;;;;7.90;5.70;;;13.20;99.90;;;;;;5053691;28;20033;-44
2023/04/30 03:55:10;;;;;;;8.20;6.00;;;13.20;99.90;;;;;;5053872;28;20031;-43
2023/04/30 03:57:36;;;;;;;8.50;5.82;;;13.20;99.90;;;;;;5052954;28;20104;-42
2023/04/30 04:00:06;;;;;;;7.25;6.20;;;13.20;99.90;;;;;;5053702;28;20042;-46
2023/04/30 04:02:32;;;;;;;7.53;6.28;;;13.20;99.90;;;;;;5053786;28;20513;-46
2023/04/30 04:04:59;;;;;;;9.32;6.05;;;13.20;99.90;;;;;;5053470;28;20495;-41
2023/04/30 04:07:25;;;;;;;12.60;5.90;;;13.10;99.90;;;;;;5053020;28;20025;-41
2023/04/30 04:09:50;;;;;;;7.38;6.10;;;13.20;99.90;;;;;;5053473;28;20021;-43
2023/04/30 04:12:16;;;;;;;8.88;6.43;;;13.20;99.90;;;;;;5053331;28;20021;-43
2023/04/30 04:14:41;;;;;;;10.43;6.13;;;13.20;99.90;;;;;;5053219;28;20447;-44
2023/04/30 04:17:07;;;;;;;8.40;6.35;;;13.20;99.90;;;;;;5052845;28;20028;-44
2023/04/30 04:19:33;;;;;;;10.50;7.20;;;13.20;99.90;;;;;;5053318;28;20025;-44
2023/04/30 04:21:58;;;;;;;7.18;5.82;;;13.20;99.90;;;;;;5053064;28;20116;-43
2023/04/30 04:24:25;;;;;;;10.20;6.65;;;13.20;99.90;;;;;;5052971;28;20514;-44
2023/04/30 04:26:50;;;;;;;8.55;6.15;;;13.20;99.90;;;;;;5052202;28;20040;-43
2023/04/30 04:29:16;;;;;;;6.70;5.82;;;13.20;99.90;;;;;;5053835;28;20021;-44
2023/04/30 04:31:42;;;;;;;7.72;6.15;;;13.20;99.90;;;;;;5053158;28;20044;-46
2023/04/30 04:34:08;;;;;;;9.88;6.70;;;13.20;99.90;;;;;;5053845;28;20020;-44
2023/04/30 04:36:34;;;;;;;7.65;6.38;;;13.20;99.90;;;;;;5051581;28;20035;-44
2023/04/30 04:39:00;;;;;;;9.05;6.85;;;13.20;99.90;;;;;;5053275;28;20025;-43
2023/04/30 04:41:27;;;;;;;8.00;6.45;;;13.20;99.90;;;;;;5055622;28;20033;-44
2023/04/30 04:43:53;;;;;;;9.98;6.57;;;13.20;99.90;;;;;;5052100;28;20100;-43
2023/04/30 04:46:19;;;;;;;7.22;5.90;;;13.10;99.90;;;;;;5052129;28;20423;-41
2023/04/30 04:48:45;;;;;;;7.80;6.50;;;13.10;99.90;;;;;;5052630;28;20100;-44
2023/04/30 04:51:11;;;;;;;8.00;6.78;;;13.10;99.90;;;;;;5052772;28;20523;-44
2023/04/30 04:53:37;;;;;;;7.25;5.72;;;13.10;99.90;;;;;;5053861;28;20036;-45
2023/04/30 04:56:03;;;;;;;8.15;6.40;;;13.10;99.90;;;;;;5052056;28;20036;-43
2023/04/30 04:58:29;;;;;;;8.48;6.38;;;13.20;99.90;;;;;;5053456;28;20060;-44
2023/04/30 05:00:56;;;;;;;7.43;5.95;;;13.10;99.90;;;;;;5052353;28;20078;-44
2023/04/30 05:03:21;;;;;;;11.48;6.68;;;13.10;99.90;;;;;;5052297;28;20372;-44
2023/04/30 05:05:47;;;;;;;8.85;6.93;;;13.10;99.90;;;;;;5052145;28;20039;-44
2023/04/30 05:08:13;;;;;;;9.35;7.00;;;13.10;99.90;;;;;;5053185;28;20025;-43
2023/04/30 05:10:38;;;;;;;8.85;6.47;;;13.20;99.90;;;;;;5052375;28;20027;-43
2023/04/30 05:13:04;;;;;;;9.02;6.38;;;13.10;99.90;;;;;;5052068;28;20095;-43
2023/04/30 05:15:30;;;;;;;9.65;6.63;;;13.20;99.90;;;;;;5052050;28;20117;-42
2023/04/30 05:17:55;;;;;;;10.02;6.60;;;13.10;99.90;;;;;;5051355;28;20040;-44
2023/04/30 05:20:21;;;;;;;8.98;6.53;;;13.10;99.90;;;;;;5051871;28;20039;-43
2023/04/30 05:22:46;;;;;;;10.20;6.78;;;13.10;99.90;;;;;;5051859;28;20107;-41
2023/04/30 05:25:12;;;;;;;7.97;6.60;;;13.10;99.90;;;;;;5051749;28;20029;-43
2023/04/30 05:27:37;;;;;;;9.80;7.20;;;13.10;99.90;;;;;;5051351;28;20070;-46
2023/04/30 05:30:04;;;;;;;7.25;6.13;;;13.10;99.90;;;;;;5051929;28;20162;-43
2023/04/30 05:32:29;;;;;;;10.35;6.72;;;13.10;99.90;;;;;;5051844;28;20479;-44
2023/04/30 05:34:55;;;;;;;9.25;7.13;;;13.10;99.90;;;;;;5051758;28;20042;-43
2023/04/30 05:37:21;;;;;;;8.07;6.68;;;13.10;99.90;;;;;;5051147;28;20024;-44
2023/04/30 05:39:47;;;;;;;9.57;6.95;;;13.10;99.90;;;;;;5052560;28;20025;-44
2023/04/30 05:42:13;;;;;;;9.63;6.50;;;13.10;99.90;;;;;;5051908;28;20048;-45
2023/04/30 05:44:40;;;;;;;9.82;6.68;;;13.10;99.90;;;;;;5051585;28;20021;-46
2023/04/30 05:47:05;;;;;;;8.13;6.55;;;13.10;99.90;;;;;;5051139;28;20036;-43
2023/04/30 05:49:31;;;;;;;8.45;6.30;;;13.10;99.90;;;;;;5050726;28;20395;-43
2023/04/30 05:51:57;;;;;;;7.55;6.10;;;13.10;99.90;;;;;;5051656;28;20021;-46
2023/04/30 05:54:22;;;;;;;7.82;5.80;;;13.10;99.90;;;;;;5051943;28;20079;-39
2023/04/30 05:56:48;;;;;;;7.97;6.32;;;13.10;99.90;;;;;;5052138;28;20451;-45
2023/04/30 05:59:13;;;;;;;7.63;6.28;;;13.10;99.90;;;;;;5051375;28;20479;-43
2023/04/30 06:01:40;;;;;;;7.90;5.70;;;13.10;99.90;;;;;;5051504;28;20104;-44
2023/04/30 06:04:08;;;;;;;7.53;5.88;;;13.10;99.90;;;;;;5051403;28;20033;-43
2023/04/30 06:06:33;;;;;;;7.38;5.60;;;13.10;99.90;;;;;;5050986;28;20033;-44
2023/04/30 06:08:59;;;;;;;7.03;5.60;;;13.20;99.90;;;;;;5051057;28;20023;-46
2023/04/30 06:11:25;;;;;;;7.15;5.68;;;13.20;99.90;;;;;;5051360;28;20028;-44
2023/04/30 06:13:51;;;;;;;8.98;5.85;;;13.20;99.90;;;;;;5051267;28;20017;-44
2023/04/30 06:16:16;;;;;;;8.13;6.28;;;13.10;99.90;;;;;;5050272;28;20040;-41
2023/04/30 06:18:42;;;;;;;8.18;6.28;;;13.20;99.90;;;;;;5052006;28;20029;-43
2023/04/30 06:21:07;;;;;;;7.88;5.75;;;13.20;99.90;;;;;;5051015;28;20059;-43
2023/04/30 06:23:33;;;;;;;6.90;6.18;;;13.10;99.90;;;;;;5051087;28;20055;-43
2023/04/30 06:25:59;;;;;;;7.72;6.03;;;13.20;99.90;;;;;;5050360;28;20032;-43
2023/04/30 06:28:24;;;;;;;7.93;6.30;;;13.20;99.90;;;;;;5050859;28;20017;-43
2023/04/30 06:30:51;;;;;;;7.10;5.75;;;13.20;99.90;;;;;;5051164;28;20040;-41
2023/04/30 06:33:16;;;;;;;6.45;5.60;;;13.20;99.90;;;;;;5051070;28;20035;-46
2023/04/30 06:35:42;;;;;;;6.55;5.88;;;13.20;99.90;;;;;;5050761;28;20029;-41
2023/04/30 06:38:07;;;;;;;8.52;6.10;;;13.20;99.90;;;;;;5050456;28;20029;-42
2023/04/30 06:40:34;;;;;;;7.05;5.65;;;13.20;99.90;;;;;;5050914;28;20483;-43
2023/04/30 06:42:59;;;;;;;10.00;5.82;;;13.20;99.90;;;;;;5051219;28;20045;-44
2023/04/30 06:45:25;;;;;;;7.43;5.75;;;13.20;99.90;;;;;;5050502;28;20064;-43
2023/04/30 06:47:52;;;;;;;7.15;5.70;;;13.20;99.90;;;;;;5050521;28;20033;-44
2023/04/30 06:50:18;;;;;;;6.78;5.78;;;13.20;99.90;;;;;;5052925;28;20079;-42
2023/04/30 06:52:43;;;;;;;7.35;5.72;;;13.20;99.90;;;;;;5050803;28;20033;-45
2023/04/30 06:55:10;;;;;;;6.00;5.40;;;13.20;99.90;;;;;;5050691;28;20028;-44
2023/04/30 06:57:36;;;;;;;9.02;6.10;;;13.20;99.90;;;;;;5049958;28;20025;-47
2023/04/30 07:00:06;;;;;;;8.25;5.97;;;13.20;99.90;;;;;;5052100;28;20025;-41
2023/04/30 07:02:32;;;;;;;6.85;5.60;;;13.20;99.90;;;;;;5054584;28;20059;-40
2023/04/30 07:04:57;;;;;;;6.97;5.30;;;13.20;99.90;;;;;;5054752;28;20530;-44
2023/04/30 07:07:23;;;;;;;7.25;5.68;;;13.20;99.90;;;;;;5053948;28;20036;-43
2023/04/30 07:09:49;;;;;;;6.00;4.43;;;13.20;99.90;;;;;;5054939;28;20037;-44
2023/04/30 07:12:15;;;;;;;6.82;5.28;;;13.20;99.90;;;;;;5054419;28;20104;-46
2023/04/30 07:14:41;;;;;;;7.05;5.57;;;13.30;99.90;;;;;;5054381;28;20415;-45
2023/04/30 07:17:07;;;;;;;7.28;5.43;;;13.20;99.90;;;;;;5053796;28;20029;-44
2023/04/30 07:19:32;;;;;;;6.90;5.30;;;13.20;99.90;;;;;;5054634;28;20121;-44
2023/04/30 07:21:58;;;;;;;7.68;5.78;;;13.20;99.90;;;;;;5054741;28;20079;-44
2023/04/30 07:24:24;;;;;;;6.28;5.10;;;13.20;99.90;;;;;;5054642;28;20029;-44
2023/04/30 07:26:49;;;;;;;7.55;5.22;;;13.30;99.90;;;;;;5054352;28;20021;-44
2023/04/30 07:29:15;;;;;;;6.88;5.45;;;13.20;99.90;;;;;;5053981;28;20029;-44
2023/04/30 07:31:41;;;;;;;6.28;4.85;;;13.20;99.90;;;;;;5054094;28;20144;-46
2023/04/30 07:34:07;;;;;;;6.10;5.05;;;13.30;99.90;;;;;;5053937;28;20028;-44
2023/04/30 07:36:33;;;;;;;7.22;4.78;;;13.30;99.90;;;;;;5053480;28;20036;-44
2023/04/30 07:38:58;;;;;;;6.88;4.90;;;13.30;99.90;;;;;;5054099;28;20033;-43
2023/04/30 07:41:25;;;;;;;5.95;4.88;;;13.20;99.90;;;;;;5053734;28;20107;-46
2023/04/30 07:43:50;;;;;;;6.22;4.90;;;13.20;99.90;;;;;;5053356;28;20041;-43
2023/04/30 07:46:16;;;;;;;6.72;4.75;;;13.30;99.90;;;;;;5053016;28;20029;-44
2023/04/30 07:48:42;;;;;;;5.80;4.40;;;13.30;99.90;;;;;;5053807;28;20074;-44
2023/04/30 07:51:07;;;;;;;5.85;4.60;;;13.30;99.90;;;;;;5053879;28;20025;-42
2023/04/30 07:53:33;;;;;;;5.57;4.68;;;13.30;99.90;;;;;;5053865;28;20017;-44
2023/04/30 07:55:58;;;;;;;6.25;4.80;;;13.20;99.90;;;;;;5053095;28;20021;-44
2023/04/30 07:58:24;;;;;;;7.38;4.28;;;13.30;99.90;;;;;;5053831;28;20348;-43
2023/04/30 08:00:50;;;;;;;5.53;4.40;;;13.20;99.90;;;;;;5053503;28;20112;-44
2023/04/30 08:03:15;;;;;;;5.80;4.15;;;13.30;99.90;;;;;;5053201;28;20025;-41
2023/04/30 08:05:41;;;;;;;5.45;4.45;;;13.20;99.90;;;;;;5053063;28;20382;-44
2023/04/30 08:08:07;;;;;;;5.82;4.25;;;13.30;99.90;;;;;;5052966;28;20065;-45
2023/04/30 08:10:33;;;;;;;6.15;4.20;;;13.30;99.90;;;;;;5053349;28;20447;-44
2023/04/30 08:12:58;;;;;;;5.00;3.85;;;13.30;99.90;;;;;;5052554;28;20299;-43
2023/04/30 08:15:24;;;;;;;4.85;4.13;;;13.30;99.90;;;;;;5053817;28;20051;-44
2023/04/30 08:17:50;;;;;;;5.57;3.92;;;13.30;99.90;;;;;;5054171;28;20047;-40
2023/04/30 08:20:16;;;;;;;4.65;4.05;;;13.30;99.90;;;;;;5053254;28;20463;-43
2023/04/30 08:22:43;;;;;;;4.85;3.83;;;13.30;99.90;;;;;;5055090;28;20029;-41
2023/04/30 08:25:12;;;;;;;5.03;3.88;;;13.30;99.90;;;;;;5053358;28;20033;-43
2023/04/30 08:27:38;;;;;;;5.95;3.85;;;13.30;99.90;;;;;;5052185;28;20074;-44
2023/04/30 08:30:07;;;;;;;4.60;3.92;;;13.30;99.90;;;;;;5052924;28;20104;-43
2023/04/30 08:32:37;;;;;;;4.80;4.07;;;13.40;99.90;;;;;;5052906;28;20430;-39
2023/04/30 08:35:06;;;;;;;4.28;3.78;;;13.30;99.90;;;;;;5052761;28;20021;-40
2023/04/30 08:37:32;;;;;;;5.80;4.45;;;13.40;99.90;;;;;;5052636;28;20115;-43
2023/04/30 08:39:58;;;;;;;4.45;3.70;;;13.30;99.90;;;;;;5053009;28;20033;-45
2023/04/30 08:42:35;;;;;;;4.50;3.97;;;13.30;99.90;;;;;;5052798;28;20036;-42
2023/04/30 08:45:03;;;;;;;4.63;3.60;;;13.30;99.90;;;;;;5052592;28;20108;-43
2023/04/30 08:47:30;;;;;;;5.53;3.83;;;13.30;99.90;;;;;;5051984;28;20021;-44
2023/04/30 08:49:55;;;;;;;5.30;3.75;;;13.40;99.90;;;;;;5052562;28;20082;-46
2023/04/30 08:52:21;;;;;;;4.18;3.78;;;13.40;99.90;;;;;;5053140;28;20467;-44
2023/04/30 08:54:47;;;;;;;4.30;3.70;;;13.40;99.90;;;;;;5052592;28;20052;-39
2023/04/30 08:57:13;;;;;;;4.57;3.42;;;13.40;99.90;;;;;;5051869;28;20044;-44
2023/04/30 08:59:39;;;;;;;3.97;3.35;;;13.40;99.90;;;;;;5052481;28;20817;-46
2023/04/30 09:02:05;;;;;;;4.60;3.70;;;13.40;99.90;;;;;;5052279;28;20454;-44
2023/04/30 09:04:31;;;;;;;4.03;3.20;;;13.40;99.90;;;;;;5052518;28;20048;-46
2023/04/30 09:06:59;;;;;;;4.35;3.70;;;13.40;99.90;;;;;;5051670;28;20025;-44
2023/04/30 09:09:29;;;;;;;3.92;3.20;;;13.40;99.90;;;;;;5052827;28;20526;-42
2023/04/30 09:12:16;;;;;;;4.00;3.28;;;13.40;99.90;;;;;;5052471;28;20079;-44
2023/04/30 09:15:01;;;;;;;6.60;3.38;;;13.40;99.90;;;;;;5050920;28;20471;-44
2023/04/30 09:17:26;;;;;;;3.55;3.10;;;13.40;99.90;;;;;;5052226;28;20411;-44
2023/04/30 09:19:52;;;;;;;4.45;3.33;;;13.40;99.90;;;;;;5052305;28;20025;-44
2023/04/30 09:22:20;;;;;;;4.78;3.47;;;13.40;99.90;;;;;;5051574;28;20029;-38
2023/04/30 09:24:48;;;;;;;3.90;3.20;;;13.40;99.90;;;;;;5052028;28;20418;-44
2023/04/30 09:27:21;;;;;;;3.60;3.08;;;13.40;99.90;;;;;;5051304;28;20028;-44
2023/04/30 09:29:47;;;;;;;5.30;2.92;;;13.40;99.90;;;;;;5052115;28;20070;-44
2023/04/30 09:32:13;;;;;;;3.97;2.90;;;13.40;99.90;;;;;;5051983;28;20025;-43
2023/04/30 09:34:39;;;;;;;4.38;3.15;;;13.40;99.90;;;;;;5051635;28;20086;-44
2023/04/30 09:37:06;;;;;;;4.50;3.33;;;13.40;99.90;;;;;;5051415;28;20016;-44
2023/04/30 09:39:32;;;;;;;5.30;3.15;;;13.40;99.90;;;;;;5051728;28;20028;-41
2023/04/30 09:42:08;;;;;;;3.25;2.88;;;13.40;99.90;;;;;;5052413;28;20029;-46
2023/04/30 09:44:39;;;;;;;4.55;3.10;;;13.40;99.90;;;;;;5051800;28;20033;-44
2023/04/30 09:47:19;;;;;;;3.58;2.83;;;13.40;99.90;;;;;;5050933;28;20032;-45
2023/04/30 09:49:50;;;;;;;4.00;3.03;;;13.40;99.90;;;;;;5051392;28;20032;-45
2023/04/30 09:52:17;;;;;;;3.72;3.08;;;13.40;99.90;;;;;;5051546;28;20040;-44
2023/04/30 09:54:44;;;;;;;3.80;3.05;;;13.40;99.90;;;;;;5051457;28;20025;-44
2023/04/30 09:57:12;;;;;;;4.55;3.42;;;13.40;99.90;;;;;;5050690;28;20514;-43
2023/04/30 09:59:45;;;;;;;3.28;2.97;;;13.40;99.90;;;;;;5051441;28;20033;-43
2023/04/30 10:02:15;;;;;;;3.78;3.08;;;13.40;99.90;;;;;;5051443;28;20052;-46
2023/04/30 10:04:42;;;;;;;5.07;3.25;;;13.40;99.90;;;;;;5051236;28;20045;-44
2023/04/30 10:07:18;;;;;;;5.45;3.53;;;13.40;99.90;;;;;;5050492;28;20506;-43
2023/04/30 10:10:06;;;;;;;6.40;3.85;;;13.40;99.90;;;;;;5051242;28;20103;-44
2023/04/30 10:12:35;;;;;;;5.43;3.58;;;13.40;99.90;;;;;;5050953;28;20021;-43
2023/04/30 10:15:11;;;;;;;6.13;3.58;;;13.40;99.90;;;;;;5051157;28;20029;-43
2023/04/30 10:17:43;;;;;;;7.70;4.05;;;13.40;99.90;;;;;;5050654;28;20383;-45
2023/04/30 10:20:10;;;;;;;5.53;3.80;;;13.40;99.90;;;;;;5050968;28;20017;-43
2023/04/30 10:22:35;;;;;;;3.67;3.30;;;13.40;99.90;;;;;;5050890;28;20550;-43
2023/04/30 10:25:02;;;;;;;4.63;3.25;;;13.40;99.90;;;;;;5050966;28;20033;-45
2023/04/30 10:27:29;;;;;;;4.57;3.25;;;13.40;99.90;;;;;;5050240;28;20052;-45
2023/04/30 10:29:54;;;;;;;4.72;3.10;;;13.40;99.90;;;;;;5051002;28;20024;-45
2023/04/30 10:32:22;;;;;;;5.28;3.60;;;13.40;99.90;;;;;;5050876;28;20029;-44
2023/04/30 10:35:05;;;;;;;4.20;3.40;;;13.40;99.90;;;;;;5053765;28;20027;-46
2023/04/30 10:37:58;;;;;;;5.07;3.20;;;13.40;99.90;;;;;;5056886;28;20376;-45
2023/04/30 10:40:27;;;;;;;3.28;2.97;;;13.40;99.90;;;;;;5057458;28;20040;-45
2023/04/30 10:42:53;;;;;;;4.57;3.05;;;13.40;99.90;;;;;;5056611;28;20418;-46
2023/04/30 10:45:37;;;;;;;4.75;3.60;;;13.40;99.90;;;;;;5057558;28;20021;-47
2023/04/30 10:48:03;;;;;;;3.47;2.95;;;13.40;99.90;;;;;;5056975;28;20414;-46
2023/04/30 10:50:29;;;;;;;5.47;3.00;;;13.40;99.90;;;;;;5057690;28;20025;-42
2023/04/30 10:53:02;;;;;;;4.82;2.83;;;13.40;99.90;;;;;;5057294;28;20496;-45
2023/04/30 10:55:29;;;;;;;5.03;3.20;;;13.40;99.90;;;;;;5057404;28;20463;-40
2023/04/30 10:57:57;;;;;;;3.47;2.80;;;13.40;99.90;;;;;;5056804;28;20021;-43
2023/04/30 11:00:29;;;;;;;5.75;2.97;;;13.40;99.90;;;;;;5057321;28;20029;-41
2023/04/30 11:03:06;;;;;;;3.30;3.00;;;13.40;99.90;;;;;;5057070;28;20032;-43
2023/04/30 11:05:36;;;;;;;3.17;2.88;;;13.40;99.90;;;;;;5058458;28;20031;-41
2023/04/30 11:08:03;;;;;;;3.03;2.63;;;13.40;99.90;;;;;;5056637;28;20501;-44
2023/04/30 11:10:34;;;;;;;3.03;2.72;;;13.40;99.90;;;;;;5057370;28;20126;-40
2023/04/30 11:13:09;;;;;;;3.28;2.97;;;13.40;99.90;;;;;;5057369;28;20475;-44
2023/04/30 11:15:42;;;;;;;3.42;2.88;;;13.40;99.90;;;;;;5057115;28;20024;-40
2023/04/30 11:18:08;;;;;;;4.35;3.00;;;13.40;99.90;;;;;;5056801;28;20039;-41
2023/04/30 11:20:48;;;;;;;3.30;2.83;;;13.40;99.90;;;;;;5055789;28;20029;-42
2023/04/30 11:23:15;;;;;;;3.72;2.58;;;13.40;99.90;;;;;;5057151;28;20037;-40
2023/04/30 11:25:45;;;;;;;3.35;2.78;;;13.40;99.90;;;;;;5056986;28;20356;-45
2023/04/30 11:28:15;;;;;;;3.58;2.80;;;13.40;99.90;;;;;;5056823;28;20029;-38
2023/04/30 11:30:56;;;;;;;3.15;2.70;;;13.40;99.90;;;;;;5056831;28;20479;-45
2023/04/30 11:33:28;;;;;;;3.22;2.90;;;13.40;99.90;;;;;;5057033;28;20075;-43
2023/04/30 11:35:55;;;;;;;3.58;2.70;;;13.40;99.90;;;;;;5056471;28;20040;-43
2023/04/30 11:38:28;;;;;;;3.63;3.00;;;13.40;99.90;;;;;;5056784;28;20017;-43
2023/04/30 11:40:55;;;;;;;3.85;2.83;;;13.40;99.90;;;;;;5056862;28;20029;-42
2023/04/30 11:43:26;;;;;;;3.95;2.78;;;13.40;99.90;;;;;;5055422;28;20025;-42
2023/04/30 11:46:12;;;;;;;3.83;2.75;;;13.40;99.90;;;;;;5055345;28;20095;-43
2023/04/30 11:48:41;;;;;;;4.60;2.63;;;13.40;99.90;;;;;;5053672;28;20020;-43
2023/04/30 11:51:19;;;;;;;3.17;2.63;;;13.40;99.90;;;;;;5053620;28;20032;-44
2023/04/30 11:53:49;;;;;;;2.92;2.55;;;13.40;99.90;;;;;;5053572;28;20531;-44
2023/04/30 11:56:23;;;;;;;3.20;2.53;;;13.50;99.90;;;;;;5053255;28;20039;-44
2023/04/30 11:58:50;;;;;;;4.32;2.78;;;13.40;99.90;;;;;;5053626;28;20044;-45
2023/04/30 12:01:16;;;;;;;3.40;2.50;;;13.40;99.90;;;;;;5053353;28;20029;-42
2023/04/30 12:03:47;;;;;;;3.20;2.45;;;13.40;99.90;;;;;;5053404;28;20044;-43
2023/04/30 12:06:25;;;;;;;3.28;2.33;;;13.40;99.90;;;;;;5052720;28;20124;-43
2023/04/30 12:08:55;;;;;;;3.22;2.58;;;13.40;99.90;;;;;;5052217;28;20029;-42
2023/04/30 12:11:26;;;;;;;2.72;2.53;;;13.50;99.90;;;;;;5053259;28;20048;-43
2023/04/30 12:14:04;;;;;;;3.20;2.60;;;13.50;99.90;;;;;;5053656;28;20370;-44
2023/04/30 12:16:47;;;;;;;3.13;2.75;;;13.40;99.90;;;;;;5052521;28;20103;-45
2023/04/30 12:19:15;;;;;;;3.78;2.72;;;13.50;99.90;;;;;;5053230;28;20540;-43
2023/04/30 12:21:46;;;;;;;3.42;2.60;;;13.50;99.90;;;;;;5053275;28;20238;-43
2023/04/30 12:24:12;;;;;;;3.03;2.65;;;13.50;99.90;;;;;;5053173;28;20441;-40
2023/04/30 12:26:39;;;;;;;3.33;2.67;;;13.40;99.90;;;;;;5052417;28;20107;-44
2023/04/30 12:29:09;;;;;;;3.42;2.90;;;13.40;99.90;;;;;;5052885;28;20159;-44
2023/04/30 12:31:40;;;;;;;3.15;2.80;;;13.50;99.90;;;;;;5053155;28;20025;-40
2023/04/30 12:34:07;;;;;;;2.92;2.47;;;13.50;99.90;;;;;;5053006;28;20021;-45
2023/04/30 12:36:35;;;;;;;3.15;2.67;;;13.50;99.90;;;;;;5052347;28;20017;-44
2023/04/30 12:42:19;;;;;;;6.20;2.72;;;13.50;99.90;;;;;;5040795;28;20056;-45
2023/04/30 12:44:44;;;;;;;3.75;2.58;;;13.50;99.90;;;;;;5052624;28;20468;-45
2023/04/30 12:47:10;;;;;;;3.20;2.90;;;13.50;99.90;;;;;;5051920;28;20110;-47
2023/04/30 12:49:36;;;;;;;5.75;2.50;;;13.60;99.90;;;;;;5052602;28;20032;-45
2023/04/30 12:52:08;;;;;;;4.50;2.67;;;13.60;99.90;;;;;;5052387;28;20021;-44
2023/04/30 12:54:35;;;;;;;4.18;2.45;;;13.60;99.90;;;;;;5052559;28;20463;-44